Airfield :
LOGIN :

Register | Disclaimer

   EN    FR    IT 

 










Legend :    VFR   Marginal VFR   IFR   Intensive IFR   Very Intensive IFR
Visi :
Ceiling :
>= 8 km
>= 3000ft
5 to 8 km
1000 to 3000 ft
1500m to 5 km
500 to 1000 ft
800 to 1500m
200 to 500 ft
< 800m
< 200 ft
Symbols :   Thunderstorms  Fog  Heavy snow  Heavy precipitations  Wind > 20 kt
SIGMETs :     Misc.  Thunderstorms  Icing  Turbulence  Mountain Waves  Volcanic Ashes







- Airport Elevation : 1548 ft


LKNA - Náměšť Air Base

CURRENT METAR :
  • 171900Z 32006KT 3000 -RA BR BKN008 OVC060 03/03 Q1023 NOSIG RMK BLACK

EXPIRED METARs :
  • 171800Z 31007KT 2000 -RA BR BKN006 OVC035 03/02 Q1023 NOSIG RMK BLACK
  • 171700Z 32006KT 2500 -RA BR BKN006 OVC026 03/02 Q1023 NOSIG RMK BLACK
  • 171636Z 32005KT 2500 -RA BR SCT008 OVC025 03/02 Q1023 RMK BLACK

TAF COR TAF LKNA
Valid from the 17 at 18:00 until the 18 at 18:00 UTC


171700Z 1718/1818 33006KT 3000 BR SCT020 OVC030
TEMPO 1718/1800 2000 SHRA BKN010
PROB40
TEMPO 1802/1808 0800 FZFG VV002
BECMG 1808/1810 28010KT 8000 BKN030
No reported NOTAMs for that airfield.



MET'MAP, your aeronautical weather chart ! - Copyright ORBIFLY December 2007 - Disclaimer

ORBIFLY MET'MAP TEAM :

Programming & Development : Alexandra Zaïnal
Concept & Development : Baudouin d'Aumeries
Co-Development & Prog : Marc-Olivier Méhu
Technical & hardware support : Manuel Goepfert

Contact : metmap@orbifly.com




SOURCES & CREDITS :

   NOAA